Craig, Alaska
Current Conditions -  °F | °C
As of 6:53 AM on Wednesday 22 Oct 2014 (Local Time) from PAKW Reporting Station
Light Rain Light Rain  
Wind Chill: 41°   Ceiling: 3500
Heat Index: 45°   Visibility: 3mi
Dew Point: 44°   Wind: 8mph
Humidity: 97%   Direction: 190°S
Pressure: 29.29"   Gusts: NA
Location:  55.47°N, 133.13°W
Report Text: PAKW 221453Z AUTO 19007KT 140V200 3SM -RA BR SCT026 BKN035 OVC042 07/07 A2929 RMK AO2 SLP919 P0010 60015 T00720067 50019 TSNO
Loading
Personal Weather Stations






























Interactive Weather Map
Tropical Storm Tracking
New forecast layout! Learn more

10-Day Weather Forecast

Advertisements
Track Severe Weather on mobile